createdAt,value
2018-08-11T00:00:20.099Z,16.40
2018-08-11T00:02:47.658Z,16.40
2018-08-11T00:05:15.471Z,16.30
2018-08-11T00:07:43.033Z,16.40
2018-08-11T00:10:10.616Z,16.40
2018-08-11T00:12:38.178Z,16.50
2018-08-11T00:15:08.878Z,16.50
2018-08-11T00:17:36.556Z,16.50
2018-08-11T00:20:06.690Z,16.60
2018-08-11T00:22:34.231Z,16.60
2018-08-11T00:25:01.785Z,16.50
2018-08-11T00:27:32.168Z,16.50
2018-08-11T00:30:01.300Z,16.40
2018-08-11T00:32:28.844Z,16.30
2018-08-11T00:34:56.623Z,16.20
2018-08-11T00:37:24.231Z,16.10
2018-08-11T00:39:52.172Z,16.00
2018-08-11T00:42:19.726Z,15.80
2018-08-11T00:44:47.259Z,15.70
2018-08-11T00:47:15.046Z,15.70
2018-08-11T00:49:42.583Z,15.60
2018-08-11T00:52:10.162Z,15.50
2018-08-11T00:54:37.689Z,15.50
2018-08-11T00:57:05.194Z,15.40
2018-08-11T00:59:32.712Z,15.40
2018-08-11T01:02:00.223Z,15.30
2018-08-11T01:04:27.768Z,15.30
2018-08-11T01:06:55.292Z,15.20
2018-08-11T01:09:22.824Z,15.10
2018-08-11T01:11:50.350Z,15.10
2018-08-11T01:14:17.871Z,15.00
2018-08-11T01:16:45.379Z,14.90
2018-08-11T01:19:12.896Z,14.90
2018-08-11T01:21:40.402Z,14.80
2018-08-11T01:24:07.915Z,14.80
2018-08-11T01:26:35.420Z,14.70
2018-08-11T01:29:02.983Z,14.70
2018-08-11T01:31:30.482Z,14.70
2018-08-11T01:33:57.990Z,14.60
2018-08-11T01:36:25.506Z,14.60
2018-08-11T01:38:53.016Z,14.60
2018-08-11T01:41:20.519Z,14.50
2018-08-11T01:43:48.030Z,14.50
2018-08-11T01:46:15.546Z,14.50
2018-08-11T01:48:43.057Z,14.50
2018-08-11T01:51:10.560Z,14.40
2018-08-11T01:53:38.067Z,14.40
2018-08-11T01:56:05.598Z,14.40
2018-08-11T01:58:33.146Z,14.40
2018-08-11T02:01:07.194Z,14.40
2018-08-11T02:03:34.741Z,14.50
2018-08-11T02:06:02.297Z,14.60
2018-08-11T02:08:29.978Z,14.70
2018-08-11T02:10:57.503Z,14.60
2018-08-11T02:13:25.051Z,14.70
2018-08-11T02:15:52.801Z,14.60
2018-08-11T02:18:20.692Z,14.60
2018-08-11T02:20:48.544Z,14.50
2018-08-11T02:23:16.480Z,14.40
2018-08-11T02:25:44.380Z,14.40
2018-08-11T02:28:12.252Z,14.30
2018-08-11T02:30:40.136Z,14.30
2018-08-11T02:33:07.991Z,14.30
2018-08-11T02:35:35.961Z,14.30
2018-08-11T02:38:03.864Z,14.30
2018-08-11T02:40:31.729Z,14.30
2018-08-11T02:42:59.596Z,14.30
2018-08-11T02:45:27.488Z,14.30
2018-08-11T02:58:44.835Z,14.20
2018-08-11T03:01:12.700Z,14.10
2018-08-11T03:03:40.569Z,14.20
2018-08-11T03:06:08.401Z,14.10
2018-08-11T03:08:36.321Z,14.10
2018-08-11T03:11:04.588Z,14.10
2018-08-11T03:13:32.409Z,14.10
2018-08-11T03:16:00.224Z,14.00
2018-08-11T03:18:28.108Z,14.10
2018-08-11T03:20:55.987Z,14.00
2018-08-11T03:26:01.863Z,14.10
2018-08-11T03:28:29.615Z,14.10
2018-08-11T03:30:57.486Z,14.00
2018-08-11T03:33:25.300Z,14.00
2018-08-11T03:35:53.058Z,14.00
2018-08-11T03:38:20.832Z,13.90
2018-08-11T03:40:48.584Z,13.90
2018-08-11T03:43:16.311Z,13.90
2018-08-11T03:45:44.131Z,13.90
2018-08-11T03:48:11.936Z,13.90
2018-08-11T03:50:39.700Z,14.00
2018-08-11T03:53:07.529Z,14.00
2018-08-11T03:55:35.398Z,14.10
2018-08-11T03:58:03.349Z,14.20
2018-08-11T04:00:31.229Z,14.40
2018-08-11T04:02:59.172Z,14.50
2018-08-11T04:05:27.038Z,14.70
2018-08-11T04:07:54.859Z,14.80
2018-08-11T04:10:22.616Z,14.90
2018-08-11T04:12:50.546Z,15.00
2018-08-11T04:15:18.324Z,15.10
2018-08-11T04:17:46.191Z,15.20
2018-08-11T04:20:13.982Z,15.40
2018-08-11T04:22:42.128Z,15.40
2018-08-11T04:25:10.541Z,15.50
2018-08-11T04:27:38.429Z,15.50
2018-08-11T04:30:08.803Z,15.50
2018-08-11T04:32:36.601Z,15.60
2018-08-11T04:35:04.469Z,15.70
2018-08-11T04:37:32.249Z,15.70
2018-08-11T04:39:59.999Z,15.80
2018-08-11T04:42:27.849Z,16.00
2018-08-11T04:44:55.728Z,16.30
2018-08-11T04:47:23.540Z,16.70
2018-08-11T04:49:51.336Z,17.10
2018-08-11T04:52:19.209Z,17.50
2018-08-11T04:54:47.044Z,17.80
2018-08-11T04:57:14.836Z,18.10
2018-08-11T04:59:42.636Z,18.20
2018-08-11T05:02:10.492Z,18.30
2018-08-11T05:04:38.311Z,18.50
2018-08-11T05:07:06.553Z,18.60
2018-08-11T05:09:34.435Z,18.70
2018-08-11T05:12:02.296Z,18.90
2018-08-11T05:14:30.105Z,19.00
2018-08-11T05:16:57.887Z,19.00
2018-08-11T05:19:25.756Z,19.10
2018-08-11T05:21:53.576Z,19.20
2018-08-11T05:24:21.397Z,19.30
2018-08-11T05:26:49.262Z,19.50
2018-08-11T05:29:17.093Z,19.60
2018-08-11T05:31:45.054Z,19.80
2018-08-11T05:34:12.972Z,20.00
2018-08-11T05:36:40.809Z,20.00
2018-08-11T05:39:12.319Z,19.80
2018-08-11T05:41:40.180Z,19.70
2018-08-11T05:44:08.050Z,19.60
2018-08-11T05:46:36.376Z,19.40
2018-08-11T05:49:04.731Z,19.20
2018-08-11T05:51:32.765Z,19.10
2018-08-11T05:54:00.585Z,19.00
2018-08-11T05:56:28.492Z,18.80
2018-08-11T05:58:56.261Z,18.70
2018-08-11T06:01:24.069Z,18.60
2018-08-11T06:03:51.913Z,18.60
2018-08-11T06:06:19.748Z,18.80
2018-08-11T06:08:47.555Z,19.00
2018-08-11T06:11:15.463Z,19.10
2018-08-11T06:13:43.279Z,19.30
2018-08-11T06:16:11.124Z,19.50
2018-08-11T06:21:15.241Z,20.00
2018-08-11T06:23:43.000Z,20.40
2018-08-11T06:26:10.901Z,20.80
2018-08-11T06:28:38.683Z,21.30
2018-08-11T06:31:06.537Z,22.40
2018-08-11T06:33:35.197Z,23.20
2018-08-11T06:36:03.096Z,23.20
2018-08-11T06:38:30.932Z,23.00
2018-08-11T06:40:58.912Z,22.90
2018-08-11T06:43:26.624Z,22.80
2018-08-11T06:45:54.432Z,23.10
2018-08-11T06:48:22.264Z,24.20
2018-08-11T06:50:50.132Z,26.30
2018-08-11T06:53:17.970Z,28.00
2018-08-11T06:55:45.816Z,29.20
2018-08-11T06:58:13.752Z,29.90
2018-08-11T07:00:41.546Z,30.40
2018-08-11T07:03:09.521Z,31.10
2018-08-11T07:05:37.572Z,31.60
2018-08-11T07:10:43.402Z,32.20
2018-08-11T07:13:11.187Z,32.70
2018-08-11T07:15:39.023Z,32.70
2018-08-11T07:18:06.884Z,32.70
2018-08-11T07:20:34.754Z,33.00
2018-08-11T07:23:02.728Z,33.40
2018-08-11T07:25:30.589Z,33.90
2018-08-11T07:27:58.684Z,34.00
2018-08-11T07:30:26.558Z,34.10
2018-08-11T07:32:54.440Z,34.60
2018-08-11T07:35:22.341Z,35.00
2018-08-11T07:37:50.256Z,35.00
2018-08-11T07:40:18.128Z,34.60
2018-08-11T07:42:46.037Z,33.70
2018-08-11T07:45:13.941Z,33.00
2018-08-11T07:47:41.947Z,32.30
2018-08-11T07:50:09.841Z,31.70
2018-08-11T07:52:37.568Z,31.10
2018-08-11T07:55:05.463Z,30.60
2018-08-11T07:57:33.244Z,30.20
2018-08-11T08:00:01.686Z,29.70
2018-08-11T08:02:29.668Z,29.30
2018-08-11T08:04:57.603Z,29.00
2018-08-11T08:07:25.459Z,28.90
2018-08-11T08:09:53.314Z,29.30
2018-08-11T08:12:21.243Z,29.80
2018-08-11T08:14:49.096Z,30.10
2018-08-11T08:17:16.961Z,30.30
2018-08-11T08:22:24.726Z,30.70
2018-08-11T08:24:52.317Z,30.70
2018-08-11T08:27:21.452Z,31.10
2018-08-11T08:29:49.376Z,31.30
2018-08-11T08:34:59.792Z,32.00
2018-08-11T08:37:27.745Z,32.20
2018-08-11T08:39:55.653Z,32.40
2018-08-11T08:42:23.689Z,32.60
2018-08-11T08:44:51.592Z,32.40
2018-08-11T08:49:56.390Z,31.50
2018-08-11T08:52:24.263Z,31.30
2018-08-11T08:54:52.136Z,31.10
2018-08-11T08:57:20.048Z,30.80
2018-08-11T08:59:47.911Z,30.80
2018-08-11T09:02:15.964Z,31.10
2018-08-11T09:04:43.925Z,31.10
2018-08-11T09:07:11.829Z,30.90
2018-08-11T09:09:39.729Z,30.60
2018-08-11T09:12:07.741Z,30.40
2018-08-11T09:14:35.517Z,30.40
2018-08-11T09:17:03.455Z,30.40
2018-08-11T09:19:31.370Z,30.70
2018-08-11T09:21:59.300Z,31.30
2018-08-11T09:33:55.519Z,32.10
2018-08-11T09:36:23.385Z,32.50
2018-08-11T09:38:51.280Z,32.40
2018-08-11T10:02:07.255Z,32.00
2018-08-11T10:07:40.443Z,32.00
2018-08-11T10:18:05.153Z,33.30
2018-08-11T10:20:33.121Z,33.70
2018-08-11T10:25:40.009Z,35.20
2018-08-11T10:28:07.979Z,35.10
2018-08-11T10:30:35.964Z,35.00
2018-08-11T10:33:04.019Z,34.80
2018-08-11T10:35:31.885Z,34.20
2018-08-11T10:37:59.797Z,33.60
2018-08-11T10:40:27.739Z,33.70
2018-08-11T10:42:55.657Z,33.90
2018-08-11T10:45:23.555Z,33.20
2018-08-11T10:47:51.424Z,32.30
2018-08-11T10:50:19.268Z,31.70
2018-08-11T10:52:47.123Z,31.50
2018-08-11T10:55:15.014Z,31.90
2018-08-11T10:57:42.855Z,32.60
2018-08-11T11:00:10.782Z,33.30
2018-08-11T11:02:39.395Z,33.90
2018-08-11T11:05:07.921Z,33.80
2018-08-11T11:07:35.947Z,33.80
2018-08-11T11:10:04.259Z,33.70
2018-08-11T11:12:32.103Z,33.50
2018-08-11T11:14:59.953Z,32.80
2018-08-11T11:17:27.853Z,32.30
2018-08-11T11:19:55.768Z,32.30
2018-08-11T11:22:23.675Z,33.00
2018-08-11T11:24:51.508Z,33.50
2018-08-11T11:27:19.412Z,34.00
2018-08-11T11:29:47.307Z,34.50
2018-08-11T11:32:15.164Z,34.80
2018-08-11T11:34:43.094Z,34.90
2018-08-11T11:37:11.063Z,34.80
2018-08-11T11:39:38.899Z,34.20
2018-08-11T11:42:06.825Z,33.30
2018-08-11T11:44:34.677Z,32.30
2018-08-11T11:47:02.595Z,32.10
2018-08-11T11:49:30.465Z,32.30
2018-08-11T11:51:58.340Z,32.50
2018-08-11T11:54:26.257Z,33.10
2018-08-11T11:56:54.128Z,33.40
2018-08-11T11:59:21.951Z,33.10
2018-08-11T12:01:49.876Z,32.50
2018-08-11T12:04:17.776Z,32.00
2018-08-11T12:06:45.547Z,31.60
2018-08-11T12:09:13.435Z,31.10
2018-08-11T12:11:41.307Z,31.20
2018-08-11T12:14:09.255Z,32.00
2018-08-11T12:16:37.057Z,32.80
2018-08-11T12:19:05.028Z,33.30
2018-08-11T12:21:32.973Z,33.70
2018-08-11T12:24:00.892Z,33.90
2018-08-11T12:26:28.845Z,34.00
2018-08-11T12:28:56.720Z,34.00
2018-08-11T12:31:24.608Z,34.10
2018-08-11T12:33:52.448Z,34.30
2018-08-11T12:36:20.318Z,34.80
2018-08-11T12:38:48.215Z,35.40
2018-08-11T12:41:16.034Z,35.20
2018-08-11T12:43:43.854Z,34.70
2018-08-11T12:46:11.699Z,34.20
2018-08-11T12:48:39.589Z,33.80
2018-08-11T12:51:07.764Z,33.80
2018-08-11T12:53:35.634Z,33.90
2018-08-11T12:56:03.482Z,33.50
2018-08-11T12:58:31.399Z,32.90
2018-08-11T13:00:59.347Z,32.60
2018-08-11T13:03:27.209Z,32.20
2018-08-11T13:05:54.964Z,31.50
2018-08-11T13:08:22.789Z,30.80
2018-08-11T13:10:50.688Z,30.70
2018-08-11T13:13:18.495Z,31.10
2018-08-11T13:15:46.428Z,31.80
2018-08-11T13:18:14.313Z,32.30
2018-08-11T13:20:42.208Z,31.80
2018-08-11T13:23:10.025Z,31.10
2018-08-11T13:25:38.075Z,30.40
2018-08-11T13:28:06.329Z,29.70
2018-08-11T13:30:34.270Z,29.70
2018-08-11T13:33:02.107Z,30.60
2018-08-11T13:35:30.020Z,31.10
2018-08-11T13:37:57.827Z,31.10
2018-08-11T13:40:25.655Z,31.30
2018-08-11T13:42:53.487Z,31.10
2018-08-11T13:45:21.371Z,30.90
2018-08-11T13:47:49.296Z,31.10
2018-08-11T13:50:17.368Z,31.30
2018-08-11T13:52:45.281Z,31.90
2018-08-11T13:55:13.234Z,32.60
2018-08-11T13:57:41.044Z,33.30
2018-08-11T14:00:09.547Z,33.90
2018-08-11T14:02:37.376Z,34.50
2018-08-11T14:05:05.259Z,35.00
2018-08-11T14:07:33.179Z,35.30
2018-08-11T14:10:01.015Z,34.80
2018-08-11T14:12:28.841Z,34.00
2018-08-11T14:14:56.759Z,33.50
2018-08-11T14:17:24.636Z,33.60
2018-08-11T14:19:52.453Z,33.90
2018-08-11T14:22:20.369Z,34.40
2018-08-11T14:24:48.351Z,34.50
2018-08-11T14:27:16.255Z,34.20
2018-08-11T14:29:44.166Z,33.90
2018-08-11T14:32:12.058Z,33.80
2018-08-11T14:34:40.012Z,33.90
2018-08-11T14:37:07.851Z,34.10
2018-08-11T14:39:35.746Z,33.60
2018-08-11T14:42:03.564Z,32.70
2018-08-11T14:44:31.533Z,31.60
2018-08-11T14:46:59.388Z,31.30
2018-08-11T14:49:27.244Z,31.60
2018-08-11T14:51:55.092Z,31.90
2018-08-11T14:54:22.976Z,32.00
2018-08-11T14:56:50.803Z,32.40
2018-08-11T14:59:18.726Z,33.10
2018-08-11T15:01:46.685Z,33.90
2018-08-11T15:04:14.523Z,33.90
2018-08-11T15:06:42.405Z,33.80
2018-08-11T15:09:10.945Z,33.70
2018-08-11T15:11:39.206Z,33.60
2018-08-11T15:14:07.180Z,32.80
2018-08-11T15:16:35.277Z,32.40
2018-08-11T15:19:03.223Z,32.30
2018-08-11T15:21:31.504Z,32.70
2018-08-11T15:23:59.411Z,32.90
2018-08-11T15:26:27.683Z,33.10
2018-08-11T15:28:55.612Z,32.60
2018-08-11T15:31:23.621Z,32.30
2018-08-11T15:33:51.539Z,32.30
2018-08-11T15:36:19.663Z,32.50
2018-08-11T15:38:47.552Z,32.70
2018-08-11T15:41:15.441Z,32.40
2018-08-11T15:43:43.549Z,32.00
2018-08-11T15:46:11.488Z,32.00
2018-08-11T15:48:39.429Z,32.10
2018-08-11T15:51:07.328Z,32.00
2018-08-11T15:53:35.150Z,31.80
2018-08-11T15:56:03.069Z,31.70
2018-08-11T15:58:30.946Z,31.80
2018-08-11T16:00:58.942Z,31.80
2018-08-11T16:03:26.880Z,31.80
2018-08-11T16:05:54.978Z,31.70
2018-08-11T16:08:22.861Z,31.50
2018-08-11T16:10:50.769Z,31.30
2018-08-11T16:13:18.567Z,31.20
2018-08-11T16:15:46.468Z,31.00
2018-08-11T16:18:14.331Z,30.70
2018-08-11T16:20:42.157Z,30.20
2018-08-11T16:23:10.120Z,29.90
2018-08-11T16:25:38.023Z,29.80
2018-08-11T16:28:06.299Z,29.70
2018-08-11T16:30:34.181Z,29.50
2018-08-11T16:33:02.060Z,29.30
2018-08-11T16:35:29.872Z,29.10
2018-08-11T16:37:57.696Z,28.90
2018-08-11T16:40:25.616Z,28.50
2018-08-11T16:42:53.481Z,28.30
2018-08-11T16:45:21.347Z,28.10
2018-08-11T16:47:49.201Z,27.90
2018-08-11T16:50:17.094Z,27.70
2018-08-11T16:52:45.064Z,27.50
2018-08-11T16:55:13.009Z,27.40
2018-08-11T16:57:40.799Z,27.10
2018-08-11T17:00:10.613Z,26.90
2018-08-11T17:02:38.474Z,26.70
2018-08-11T17:05:06.609Z,26.40
2018-08-11T17:07:34.677Z,26.20
2018-08-11T17:10:02.779Z,26.10
2018-08-11T17:12:30.648Z,25.90
2018-08-11T17:14:58.434Z,25.80
2018-08-11T17:17:26.252Z,25.70
2018-08-11T17:19:54.077Z,25.50
2018-08-11T17:22:21.881Z,25.40
2018-08-11T17:24:49.788Z,25.20
2018-08-11T17:27:17.669Z,25.10
2018-08-11T17:29:45.517Z,25.00
2018-08-11T17:32:13.364Z,24.80
2018-08-11T17:34:41.209Z,24.70
2018-08-11T17:37:09.112Z,24.60
2018-08-11T17:39:37.001Z,24.50
2018-08-11T17:42:04.892Z,24.40
2018-08-11T17:44:32.775Z,24.30
2018-08-11T17:47:00.558Z,24.20
2018-08-11T17:49:28.443Z,24.10
2018-08-11T17:51:56.314Z,24.00
2018-08-11T17:54:24.191Z,23.90
2018-08-11T17:56:52.112Z,23.80
2018-08-11T17:59:20.048Z,23.80
2018-08-11T18:01:48.010Z,23.70
2018-08-11T18:04:15.874Z,23.50
2018-08-11T18:06:43.655Z,23.40
2018-08-11T18:09:11.814Z,23.30
2018-08-11T18:11:40.583Z,23.20
2018-08-11T18:14:08.548Z,23.00
2018-08-11T18:16:36.518Z,22.80
2018-08-11T18:19:05.027Z,22.70
2018-08-11T18:21:32.920Z,22.60
2018-08-11T18:24:00.832Z,22.50
2018-08-11T18:26:28.686Z,22.40
2018-08-11T18:28:56.607Z,22.20
2018-08-11T18:31:24.561Z,22.10
2018-08-11T18:33:52.390Z,22.00
2018-08-11T18:36:20.564Z,21.90
2018-08-11T18:38:48.441Z,21.70
2018-08-11T18:41:16.364Z,21.60
2018-08-11T18:43:44.274Z,21.40
2018-08-11T18:46:12.246Z,21.20
2018-08-11T18:48:40.165Z,21.00
2018-08-11T18:51:08.080Z,20.80
2018-08-11T18:53:36.072Z,20.60
2018-08-11T18:56:04.044Z,20.40
2018-08-11T18:58:31.996Z,20.20
2018-08-11T19:01:00.048Z,20.00
2018-08-11T19:03:27.980Z,19.80
2018-08-11T19:05:55.904Z,19.60
2018-08-11T19:08:23.886Z,19.50
2018-08-11T19:10:51.812Z,19.30
2018-08-11T19:13:19.792Z,19.10
2018-08-11T19:18:29.784Z,18.90
2018-08-11T19:20:57.564Z,18.80
2018-08-11T19:23:25.312Z,18.70
2018-08-11T19:25:53.163Z,18.60
2018-08-11T19:28:21.006Z,18.50
2018-08-11T19:30:48.783Z,18.40
2018-08-11T19:33:16.619Z,18.30
2018-08-11T19:35:44.430Z,18.10
2018-08-11T19:38:12.265Z,18.00
2018-08-11T19:40:40.144Z,17.90
2018-08-11T19:43:08.369Z,17.80
2018-08-11T19:45:36.198Z,17.70
2018-08-11T19:48:04.422Z,17.60
2018-08-11T19:50:32.232Z,17.50
2018-08-11T19:53:00.095Z,17.50
2018-08-11T19:55:28.078Z,17.40
2018-08-11T19:57:55.887Z,17.30
2018-08-11T20:00:23.747Z,17.20
2018-08-11T20:02:51.687Z,17.20
2018-08-11T20:05:19.559Z,17.10
2018-08-11T20:07:47.415Z,17.10
2018-08-11T20:10:15.195Z,17.00
2018-08-11T20:12:43.088Z,17.00
2018-08-11T20:15:10.892Z,16.90
2018-08-11T20:17:38.946Z,16.90
2018-08-11T20:20:08.133Z,16.90
2018-08-11T20:22:35.974Z,16.80
2018-08-11T20:25:04.385Z,16.80
2018-08-11T20:27:32.183Z,16.70
2018-08-11T20:29:59.993Z,16.70
2018-08-11T20:32:27.856Z,16.60
2018-08-11T20:34:55.691Z,16.60
2018-08-11T20:37:23.564Z,16.60
2018-08-11T20:39:51.411Z,16.60
2018-08-11T20:42:19.278Z,16.50
2018-08-11T20:44:47.177Z,16.50
2018-08-11T20:47:15.111Z,16.50
2018-08-11T20:49:42.869Z,16.40
2018-08-11T20:52:10.612Z,16.40
2018-08-11T20:54:38.504Z,16.30
2018-08-11T20:57:06.351Z,16.20
2018-08-11T20:59:34.165Z,16.10
2018-08-11T21:02:02.324Z,16.00
2018-08-11T21:04:30.141Z,16.00
2018-08-11T21:06:57.998Z,15.90
2018-08-11T21:09:25.829Z,15.80
2018-08-11T21:11:53.715Z,15.70
2018-08-11T21:14:21.505Z,15.60
2018-08-11T21:16:49.332Z,15.60
2018-08-11T21:19:17.077Z,15.50
2018-08-11T21:21:44.907Z,15.40
2018-08-11T21:24:12.647Z,15.40
2018-08-11T21:26:40.411Z,15.40
2018-08-11T21:29:08.204Z,15.30
2018-08-11T21:31:35.941Z,15.30
2018-08-11T21:34:03.718Z,15.20
2018-08-11T21:36:31.507Z,15.20
2018-08-11T21:38:59.303Z,15.20
2018-08-11T21:41:27.116Z,15.20
2018-08-11T21:43:54.947Z,15.20
2018-08-11T21:46:22.771Z,15.20
2018-08-11T21:48:50.553Z,15.20
2018-08-11T21:51:18.439Z,15.20
2018-08-11T21:53:46.253Z,15.20
2018-08-11T21:56:14.208Z,15.20
2018-08-11T21:58:42.049Z,15.20
2018-08-11T22:01:14.735Z,15.10
2018-08-11T22:03:43.542Z,15.10
2018-08-11T22:06:11.348Z,15.10
2018-08-11T22:08:39.204Z,15.10
2018-08-11T22:11:07.083Z,15.00
2018-08-11T22:13:34.861Z,14.90
2018-08-11T22:16:03.686Z,14.90
2018-08-11T22:18:31.511Z,14.90
2018-08-11T22:20:59.345Z,14.80
2018-08-11T22:23:27.111Z,14.80
2018-08-11T22:25:54.931Z,14.70
2018-08-11T22:28:22.755Z,14.70
2018-08-11T22:30:50.524Z,14.60
2018-08-11T22:33:18.291Z,14.60
2018-08-11T22:35:46.066Z,14.50
2018-08-11T22:38:13.911Z,14.50
2018-08-11T22:40:41.659Z,14.40
2018-08-11T22:43:09.455Z,14.40
2018-08-11T22:45:37.240Z,14.30
2018-08-11T22:48:06.172Z,14.20
2018-08-11T22:50:34.011Z,14.10
2018-08-11T22:53:02.091Z,14.10
2018-08-11T22:55:29.875Z,14.00
2018-08-11T22:57:57.728Z,14.00
2018-08-11T23:00:25.563Z,14.00
2018-08-11T23:02:53.396Z,13.90
2018-08-11T23:05:21.866Z,13.90
2018-08-11T23:07:49.615Z,13.90
2018-08-11T23:10:17.807Z,13.80
2018-08-11T23:12:46.176Z,13.80
2018-08-11T23:15:16.547Z,13.80
2018-08-11T23:17:45.617Z,13.80
2018-08-11T23:20:14.046Z,13.80
2018-08-11T23:22:41.869Z,13.70
2018-08-11T23:25:10.396Z,13.60
2018-08-11T23:27:38.184Z,13.60
2018-08-11T23:30:09.247Z,13.50
2018-08-11T23:32:37.220Z,13.40
2018-08-11T23:35:05.065Z,13.30
2018-08-11T23:37:32.860Z,13.30
2018-08-11T23:40:00.635Z,13.20
2018-08-11T23:42:28.427Z,13.10
2018-08-11T23:44:56.273Z,13.10
2018-08-11T23:47:24.072Z,13.10
2018-08-11T23:49:51.839Z,13.10
2018-08-11T23:52:19.682Z,13.10
2018-08-11T23:54:47.484Z,13.10
2018-08-11T23:57:15.313Z,13.00
2018-08-11T23:59:43.192Z,12.90
